sensor_id;sensor_type;location;lat;lon;timestamp;P1;durP1;ratioP1;P2;durP2;ratioP2
9076;SDS011;4574;51.072;17.174;2023-04-25T00:01:31;1.87;;;1.40;;
9076;SDS011;4574;51.072;17.174;2023-04-25T00:04:02;3.03;;;1.40;;
9076;SDS011;4574;51.072;17.174;2023-04-25T00:06:35;1.47;;;1.20;;
9076;SDS011;4574;51.072;17.174;2023-04-25T00:09:04;2.77;;;1.43;;
9076;SDS011;4574;51.072;17.174;2023-04-25T00:11:35;1.30;;;1.20;;
9076;SDS011;4574;51.072;17.174;2023-04-25T00:14:04;2.73;;;1.23;;
9076;SDS011;4574;51.072;17.174;2023-04-25T00:16:33;3.07;;;1.20;;
9076;SDS011;4574;51.072;17.174;2023-04-25T00:19:02;1.70;;;1.40;;
9076;SDS011;4574;51.072;17.174;2023-04-25T00:21:30;5.53;;;1.27;;
9076;SDS011;4574;51.072;17.174;2023-04-25T00:24:01;2.03;;;1.40;;
9076;SDS011;4574;51.072;17.174;2023-04-25T00:26:29;1.37;;;1.20;;
9076;SDS011;4574;51.072;17.174;2023-04-25T00:28:58;2.43;;;1.20;;
9076;SDS011;4574;51.072;17.174;2023-04-25T00:31:27;1.13;;;1.07;;
9076;SDS011;4574;51.072;17.174;2023-04-25T00:33:56;1.63;;;1.30;;
9076;SDS011;4574;51.072;17.174;2023-04-25T00:36:25;2.73;;;1.10;;
9076;SDS011;4574;51.072;17.174;2023-04-25T00:38:54;1.10;;;1.00;;
9076;SDS011;4574;51.072;17.174;2023-04-25T00:41:24;1.30;;;1.10;;
9076;SDS011;4574;51.072;17.174;2023-04-25T00:43:54;1.20;;;1.03;;
9076;SDS011;4574;51.072;17.174;2023-04-25T00:46:23;1.20;;;1.10;;
9076;SDS011;4574;51.072;17.174;2023-04-25T00:48:52;1.20;;;1.10;;
9076;SDS011;4574;51.072;17.174;2023-04-25T00:51:20;7.00;;;1.40;;
9076;SDS011;4574;51.072;17.174;2023-04-25T00:53:49;1.40;;;1.20;;
9076;SDS011;4574;51.072;17.174;2023-04-25T00:56:19;1.30;;;1.10;;
9076;SDS011;4574;51.072;17.174;2023-04-25T00:58:49;1.63;;;1.20;;
9076;SDS011;4574;51.072;17.174;2023-04-25T01:01:21;4.40;;;1.00;;
9076;SDS011;4574;51.072;17.174;2023-04-25T01:03:49;2.07;;;1.50;;
9076;SDS011;4574;51.072;17.174;2023-04-25T01:06:18;4.20;;;1.20;;
9076;SDS011;4574;51.072;17.174;2023-04-25T01:08:47;1.17;;;1.07;;
9076;SDS011;4574;51.072;17.174;2023-04-25T01:11:16;1.47;;;1.20;;
9076;SDS011;4574;51.072;17.174;2023-04-25T01:13:44;2.40;;;1.30;;
9076;SDS011;4574;51.072;17.174;2023-04-25T01:16:15;1.30;;;1.17;;
9076;SDS011;4574;51.072;17.174;2023-04-25T01:18:45;1.40;;;1.20;;
9076;SDS011;4574;51.072;17.174;2023-04-25T01:21:16;2.43;;;1.43;;
9076;SDS011;4574;51.072;17.174;2023-04-25T01:23:45;1.20;;;1.10;;
9076;SDS011;4574;51.072;17.174;2023-04-25T01:26:14;1.70;;;1.13;;
9076;SDS011;4574;51.072;17.174;2023-04-25T01:28:43;1.93;;;1.47;;
9076;SDS011;4574;51.072;17.174;2023-04-25T01:31:12;3.17;;;2.07;;
9076;SDS011;4574;51.072;17.174;2023-04-25T01:33:44;1.70;;;1.43;;
9076;SDS011;4574;51.072;17.174;2023-04-25T01:36:17;1.67;;;1.57;;
9076;SDS011;4574;51.072;17.174;2023-04-25T01:38:46;1.53;;;1.43;;
9076;SDS011;4574;51.072;17.174;2023-04-25T01:41:15;4.40;;;1.63;;
9076;SDS011;4574;51.072;17.174;2023-04-25T01:43:44;1.50;;;1.40;;
9076;SDS011;4574;51.072;17.174;2023-04-25T01:46:13;1.90;;;1.63;;
9076;SDS011;4574;51.072;17.174;2023-04-25T01:48:42;3.47;;;2.20;;
9076;SDS011;4574;51.072;17.174;2023-04-25T01:51:11;2.70;;;1.70;;
9076;SDS011;4574;51.072;17.174;2023-04-25T01:53:41;1.80;;;1.70;;
9076;SDS011;4574;51.072;17.174;2023-04-25T01:56:11;3.03;;;2.00;;
9076;SDS011;4574;51.072;17.174;2023-04-25T01:58:39;2.47;;;2.03;;
9076;SDS011;4574;51.072;17.174;2023-04-25T02:01:08;2.27;;;1.87;;
9076;SDS011;4574;51.072;17.174;2023-04-25T02:03:36;4.57;;;2.03;;
9076;SDS011;4574;51.072;17.174;2023-04-25T02:06:05;2.83;;;1.83;;
9076;SDS011;4574;51.072;17.174;2023-04-25T02:08:34;2.00;;;1.80;;
9076;SDS011;4574;51.072;17.174;2023-04-25T02:11:05;2.23;;;2.00;;
9076;SDS011;4574;51.072;17.174;2023-04-25T02:13:34;3.13;;;2.00;;
9076;SDS011;4574;51.072;17.174;2023-04-25T02:16:02;2.77;;;2.20;;
9076;SDS011;4574;51.072;17.174;2023-04-25T02:18:31;4.37;;;2.30;;
9076;SDS011;4574;51.072;17.174;2023-04-25T02:21:00;3.60;;;2.30;;
9076;SDS011;4574;51.072;17.174;2023-04-25T02:23:29;5.33;;;2.60;;
9076;SDS011;4574;51.072;17.174;2023-04-25T02:25:58;3.17;;;2.40;;
9076;SDS011;4574;51.072;17.174;2023-04-25T02:28:28;3.83;;;2.70;;
9076;SDS011;4574;51.072;17.174;2023-04-25T02:30:57;2.97;;;2.60;;
9076;SDS011;4574;51.072;17.174;2023-04-25T02:33:25;2.70;;;2.40;;
9076;SDS011;4574;51.072;17.174;2023-04-25T02:35:54;2.80;;;2.50;;
9076;SDS011;4574;51.072;17.174;2023-04-25T02:38:22;2.70;;;2.47;;
9076;SDS011;4574;51.072;17.174;2023-04-25T02:40:51;3.10;;;2.67;;
9076;SDS011;4574;51.072;17.174;2023-04-25T02:43:19;2.83;;;2.53;;
9076;SDS011;4574;51.072;17.174;2023-04-25T02:45:50;3.33;;;2.60;;
9076;SDS011;4574;51.072;17.174;2023-04-25T02:48:19;5.73;;;2.80;;
9076;SDS011;4574;51.072;17.174;2023-04-25T02:50:47;3.73;;;2.70;;
9076;SDS011;4574;51.072;17.174;2023-04-25T02:53:16;3.30;;;3.00;;
9076;SDS011;4574;51.072;17.174;2023-04-25T02:55:44;3.20;;;2.80;;
9076;SDS011;4574;51.072;17.174;2023-04-25T02:58:13;4.13;;;3.10;;
9076;SDS011;4574;51.072;17.174;2023-04-25T03:00:42;3.70;;;3.10;;
9076;SDS011;4574;51.072;17.174;2023-04-25T03:03:12;3.87;;;3.17;;
9076;SDS011;4574;51.072;17.174;2023-04-25T03:05:41;5.03;;;3.07;;
9076;SDS011;4574;51.072;17.174;2023-04-25T03:08:10;4.47;;;3.43;;
9076;SDS011;4574;51.072;17.174;2023-04-25T03:10:39;3.13;;;2.83;;
9076;SDS011;4574;51.072;17.174;2023-04-25T03:13:09;4.67;;;3.40;;
9076;SDS011;4574;51.072;17.174;2023-04-25T03:15:38;3.80;;;3.17;;
9076;SDS011;4574;51.072;17.174;2023-04-25T03:18:07;3.87;;;3.10;;
9076;SDS011;4574;51.072;17.174;2023-04-25T03:20:37;3.30;;;2.90;;
9076;SDS011;4574;51.072;17.174;2023-04-25T03:23:07;3.60;;;3.30;;
9076;SDS011;4574;51.072;17.174;2023-04-25T03:25:35;3.40;;;2.50;;
9076;SDS011;4574;51.072;17.174;2023-04-25T03:28:04;3.57;;;3.10;;
9076;SDS011;4574;51.072;17.174;2023-04-25T03:30:32;3.50;;;2.70;;
9076;SDS011;4574;51.072;17.174;2023-04-25T03:33:01;5.23;;;2.70;;
9076;SDS011;4574;51.072;17.174;2023-04-25T03:35:30;3.50;;;3.20;;
9076;SDS011;4574;51.072;17.174;2023-04-25T03:38:00;3.27;;;2.73;;
9076;SDS011;4574;51.072;17.174;2023-04-25T03:40:29;3.17;;;2.87;;
9076;SDS011;4574;51.072;17.174;2023-04-25T03:42:57;3.27;;;2.90;;
9076;SDS011;4574;51.072;17.174;2023-04-25T03:45:26;5.80;;;3.00;;
9076;SDS011;4574;51.072;17.174;2023-04-25T03:47:54;3.57;;;2.87;;
9076;SDS011;4574;51.072;17.174;2023-04-25T03:50:23;3.83;;;3.10;;
9076;SDS011;4574;51.072;17.174;2023-04-25T03:52:52;5.10;;;3.13;;
9076;SDS011;4574;51.072;17.174;2023-04-25T03:55:22;3.37;;;2.70;;
9076;SDS011;4574;51.072;17.174;2023-04-25T03:57:50;6.17;;;3.27;;
9076;SDS011;4574;51.072;17.174;2023-04-25T04:00:19;3.10;;;2.80;;
9076;SDS011;4574;51.072;17.174;2023-04-25T04:02:48;4.73;;;2.93;;
9076;SDS011;4574;51.072;17.174;2023-04-25T04:05:16;7.40;;;3.17;;
9076;SDS011;4574;51.072;17.174;2023-04-25T04:07:45;4.30;;;3.30;;
9076;SDS011;4574;51.072;17.174;2023-04-25T04:10:14;4.90;;;3.17;;
9076;SDS011;4574;51.072;17.174;2023-04-25T04:12:45;4.13;;;3.60;;
9076;SDS011;4574;51.072;17.174;2023-04-25T04:15:14;5.10;;;3.63;;
9076;SDS011;4574;51.072;17.174;2023-04-25T04:17:43;6.23;;;3.53;;
9076;SDS011;4574;51.072;17.174;2023-04-25T04:20:13;4.80;;;3.73;;
9076;SDS011;4574;51.072;17.174;2023-04-25T04:22:42;5.77;;;3.50;;
9076;SDS011;4574;51.072;17.174;2023-04-25T04:25:11;7.40;;;4.00;;
9076;SDS011;4574;51.072;17.174;2023-04-25T04:27:39;7.20;;;3.93;;
9076;SDS011;4574;51.072;17.174;2023-04-25T04:30:10;4.67;;;3.80;;
9076;SDS011;4574;51.072;17.174;2023-04-25T04:32:39;6.53;;;3.97;;
9076;SDS011;4574;51.072;17.174;2023-04-25T04:35:08;4.63;;;3.60;;
9076;SDS011;4574;51.072;17.174;2023-04-25T04:37:37;6.63;;;3.83;;
9076;SDS011;4574;51.072;17.174;2023-04-25T04:40:06;5.13;;;3.67;;
9076;SDS011;4574;51.072;17.174;2023-04-25T04:42:36;5.47;;;3.77;;
9076;SDS011;4574;51.072;17.174;2023-04-25T04:45:05;5.47;;;3.70;;
9076;SDS011;4574;51.072;17.174;2023-04-25T04:47:36;5.10;;;3.90;;
9076;SDS011;4574;51.072;17.174;2023-04-25T04:50:06;5.57;;;4.17;;
9076;SDS011;4574;51.072;17.174;2023-04-25T04:52:36;10.57;;;3.93;;
9076;SDS011;4574;51.072;17.174;2023-04-25T04:55:05;3.63;;;3.33;;
9076;SDS011;4574;51.072;17.174;2023-04-25T04:57:35;5.30;;;3.90;;
9076;SDS011;4574;51.072;17.174;2023-04-25T05:00:05;4.20;;;3.80;;
9076;SDS011;4574;51.072;17.174;2023-04-25T05:02:39;6.60;;;3.73;;
9076;SDS011;4574;51.072;17.174;2023-04-25T05:05:07;4.60;;;3.50;;
9076;SDS011;4574;51.072;17.174;2023-04-25T05:07:37;6.93;;;4.17;;
9076;SDS011;4574;51.072;17.174;2023-04-25T05:10:06;4.03;;;3.57;;
9076;SDS011;4574;51.072;17.174;2023-04-25T05:12:35;4.40;;;3.70;;
9076;SDS011;4574;51.072;17.174;2023-04-25T05:15:04;5.00;;;3.50;;
9076;SDS011;4574;51.072;17.174;2023-04-25T05:17:33;4.53;;;3.17;;
9076;SDS011;4574;51.072;17.174;2023-04-25T05:20:04;4.10;;;3.70;;
9076;SDS011;4574;51.072;17.174;2023-04-25T05:22:35;6.27;;;3.47;;
9076;SDS011;4574;51.072;17.174;2023-04-25T05:25:05;5.07;;;3.60;;
9076;SDS011;4574;51.072;17.174;2023-04-25T05:27:33;4.40;;;3.70;;
9076;SDS011;4574;51.072;17.174;2023-04-25T05:30:02;3.73;;;3.43;;
9076;SDS011;4574;51.072;17.174;2023-04-25T05:32:32;6.07;;;4.27;;
9076;SDS011;4574;51.072;17.174;2023-04-25T05:35:01;5.53;;;4.00;;
9076;SDS011;4574;51.072;17.174;2023-04-25T05:37:33;4.87;;;3.77;;
9076;SDS011;4574;51.072;17.174;2023-04-25T05:40:02;4.67;;;3.80;;
9076;SDS011;4574;51.072;17.174;2023-04-25T05:42:33;4.80;;;3.70;;
9076;SDS011;4574;51.072;17.174;2023-04-25T05:45:01;5.60;;;3.83;;
9076;SDS011;4574;51.072;17.174;2023-04-25T05:47:31;4.47;;;3.60;;
9076;SDS011;4574;51.072;17.174;2023-04-25T05:49:59;5.33;;;3.77;;
9076;SDS011;4574;51.072;17.174;2023-04-25T05:52:30;5.03;;;3.50;;
9076;SDS011;4574;51.072;17.174;2023-04-25T05:54:58;3.97;;;3.53;;
9076;SDS011;4574;51.072;17.174;2023-04-25T05:57:28;4.37;;;3.40;;
9076;SDS011;4574;51.072;17.174;2023-04-25T05:59:56;4.13;;;3.67;;
9076;SDS011;4574;51.072;17.174;2023-04-25T06:02:25;5.17;;;3.53;;
9076;SDS011;4574;51.072;17.174;2023-04-25T06:04:54;4.30;;;3.63;;
9076;SDS011;4574;51.072;17.174;2023-04-25T06:07:23;5.50;;;3.67;;
9076;SDS011;4574;51.072;17.174;2023-04-25T06:09:53;6.33;;;3.70;;
9076;SDS011;4574;51.072;17.174;2023-04-25T06:12:21;4.77;;;4.07;;
9076;SDS011;4574;51.072;17.174;2023-04-25T06:14:50;7.13;;;3.93;;
9076;SDS011;4574;51.072;17.174;2023-04-25T06:17:18;5.63;;;3.57;;
9076;SDS011;4574;51.072;17.174;2023-04-25T06:19:47;5.03;;;3.70;;
9076;SDS011;4574;51.072;17.174;2023-04-25T06:22:16;3.77;;;3.47;;
9076;SDS011;4574;51.072;17.174;2023-04-25T06:24:44;4.03;;;3.60;;
9076;SDS011;4574;51.072;17.174;2023-04-25T06:27:15;8.63;;;3.80;;
9076;SDS011;4574;51.072;17.174;2023-04-25T06:29:43;7.20;;;3.90;;
9076;SDS011;4574;51.072;17.174;2023-04-25T06:32:12;6.00;;;3.50;;
9076;SDS011;4574;51.072;17.174;2023-04-25T06:34:41;5.20;;;3.70;;
9076;SDS011;4574;51.072;17.174;2023-04-25T06:37:09;5.67;;;3.60;;
9076;SDS011;4574;51.072;17.174;2023-04-25T06:39:38;4.83;;;3.90;;
9076;SDS011;4574;51.072;17.174;2023-04-25T06:42:06;7.83;;;3.73;;
9076;SDS011;4574;51.072;17.174;2023-04-25T06:44:37;7.30;;;3.40;;
9076;SDS011;4574;51.072;17.174;2023-04-25T06:47:06;3.93;;;3.00;;
9076;SDS011;4574;51.072;17.174;2023-04-25T06:49:34;4.23;;;3.40;;
9076;SDS011;4574;51.072;17.174;2023-04-25T06:52:03;5.10;;;3.50;;
9076;SDS011;4574;51.072;17.174;2023-04-25T06:54:32;6.63;;;3.33;;
9076;SDS011;4574;51.072;17.174;2023-04-25T06:57:00;5.47;;;3.20;;
9076;SDS011;4574;51.072;17.174;2023-04-25T06:59:29;3.97;;;2.90;;
9076;SDS011;4574;51.072;17.174;2023-04-25T07:01:59;4.30;;;2.80;;
9076;SDS011;4574;51.072;17.174;2023-04-25T07:04:27;5.30;;;3.50;;
9076;SDS011;4574;51.072;17.174;2023-04-25T07:06:57;3.77;;;2.90;;
9076;SDS011;4574;51.072;17.174;2023-04-25T07:09:28;4.40;;;2.83;;
9076;SDS011;4574;51.072;17.174;2023-04-25T07:11:56;3.97;;;2.50;;
9076;SDS011;4574;51.072;17.174;2023-04-25T07:14:26;9.83;;;2.73;;
9076;SDS011;4574;51.072;17.174;2023-04-25T07:16:55;3.27;;;2.60;;
9076;SDS011;4574;51.072;17.174;2023-04-25T07:19:26;6.83;;;2.80;;
9076;SDS011;4574;51.072;17.174;2023-04-25T07:21:56;4.17;;;2.40;;
9076;SDS011;4574;51.072;17.174;2023-04-25T07:24:25;5.40;;;2.43;;
9076;SDS011;4574;51.072;17.174;2023-04-25T07:26:54;4.67;;;2.70;;
9076;SDS011;4574;51.072;17.174;2023-04-25T07:29:23;3.40;;;2.17;;
9076;SDS011;4574;51.072;17.174;2023-04-25T07:31:54;3.43;;;2.30;;
9076;SDS011;4574;51.072;17.174;2023-04-25T07:34:23;3.43;;;2.50;;
9076;SDS011;4574;51.072;17.174;2023-04-25T07:36:53;7.73;;;2.57;;
9076;SDS011;4574;51.072;17.174;2023-04-25T07:39:21;5.23;;;2.00;;
9076;SDS011;4574;51.072;17.174;2023-04-25T07:41:50;4.57;;;2.10;;
9076;SDS011;4574;51.072;17.174;2023-04-25T07:44:20;3.70;;;2.33;;
9076;SDS011;4574;51.072;17.174;2023-04-25T07:46:49;5.80;;;2.50;;
9076;SDS011;4574;51.072;17.174;2023-04-25T07:49:18;4.80;;;2.37;;
9076;SDS011;4574;51.072;17.174;2023-04-25T07:51:46;2.80;;;2.50;;
9076;SDS011;4574;51.072;17.174;2023-04-25T07:54:17;6.70;;;2.07;;
9076;SDS011;4574;51.072;17.174;2023-04-25T07:56:45;4.33;;;2.53;;
9076;SDS011;4574;51.072;17.174;2023-04-25T07:59:19;2.80;;;1.73;;
9076;SDS011;4574;51.072;17.174;2023-04-25T08:01:48;3.70;;;2.47;;
9076;SDS011;4574;51.072;17.174;2023-04-25T08:04:17;3.67;;;2.37;;
9076;SDS011;4574;51.072;17.174;2023-04-25T08:06:46;4.37;;;2.43;;
9076;SDS011;4574;51.072;17.174;2023-04-25T08:09:17;4.60;;;2.73;;
9076;SDS011;4574;51.072;17.174;2023-04-25T08:11:46;3.27;;;2.60;;
9076;SDS011;4574;51.072;17.174;2023-04-25T08:14:15;3.77;;;2.83;;
9076;SDS011;4574;51.072;17.174;2023-04-25T08:16:44;3.50;;;2.83;;
9076;SDS011;4574;51.072;17.174;2023-04-25T08:19:13;3.43;;;2.90;;
9076;SDS011;4574;51.072;17.174;2023-04-25T08:21:42;4.47;;;3.33;;
9076;SDS011;4574;51.072;17.174;2023-04-25T08:24:11;5.57;;;2.90;;
9076;SDS011;4574;51.072;17.174;2023-04-25T08:26:41;4.80;;;3.10;;
9076;SDS011;4574;51.072;17.174;2023-04-25T08:29:10;5.07;;;3.20;;
9076;SDS011;4574;51.072;17.174;2023-04-25T08:31:39;7.10;;;3.27;;
9076;SDS011;4574;51.072;17.174;2023-04-25T08:34:08;6.07;;;3.37;;
9076;SDS011;4574;51.072;17.174;2023-04-25T08:36:38;3.40;;;3.10;;
9076;SDS011;4574;51.072;17.174;2023-04-25T08:39:06;5.17;;;3.13;;
9076;SDS011;4574;51.072;17.174;2023-04-25T08:41:36;4.37;;;3.40;;
9076;SDS011;4574;51.072;17.174;2023-04-25T08:44:06;6.20;;;3.80;;
9076;SDS011;4574;51.072;17.174;2023-04-25T08:46:38;3.80;;;3.40;;
9076;SDS011;4574;51.072;17.174;2023-04-25T08:49:08;6.63;;;3.90;;
9076;SDS011;4574;51.072;17.174;2023-04-25T08:51:44;3.83;;;3.47;;
9076;SDS011;4574;51.072;17.174;2023-04-25T08:54:16;5.57;;;3.50;;
9076;SDS011;4574;51.072;17.174;2023-04-25T08:57:02;5.47;;;3.30;;
9076;SDS011;4574;51.072;17.174;2023-04-25T08:59:33;11.93;;;4.60;;
9076;SDS011;4574;51.072;17.174;2023-04-25T09:02:04;5.97;;;3.23;;
9076;SDS011;4574;51.072;17.174;2023-04-25T09:04:33;8.13;;;3.73;;
9076;SDS011;4574;51.072;17.174;2023-04-25T09:07:02;7.33;;;3.90;;
9076;SDS011;4574;51.072;17.174;2023-04-25T09:09:31;6.23;;;3.70;;
9076;SDS011;4574;51.072;17.174;2023-04-25T09:12:00;6.70;;;3.50;;
9076;SDS011;4574;51.072;17.174;2023-04-25T09:14:29;5.47;;;3.83;;
9076;SDS011;4574;51.072;17.174;2023-04-25T09:17:01;6.40;;;3.50;;
9076;SDS011;4574;51.072;17.174;2023-04-25T09:19:32;6.47;;;3.57;;
9076;SDS011;4574;51.072;17.174;2023-04-25T09:22:07;5.60;;;4.23;;
9076;SDS011;4574;51.072;17.174;2023-04-25T09:24:36;5.47;;;3.50;;
9076;SDS011;4574;51.072;17.174;2023-04-25T09:27:06;5.77;;;3.97;;
9076;SDS011;4574;51.072;17.174;2023-04-25T09:29:38;4.90;;;3.40;;
9076;SDS011;4574;51.072;17.174;2023-04-25T09:32:14;5.57;;;4.40;;
9076;SDS011;4574;51.072;17.174;2023-04-25T09:34:45;4.23;;;3.43;;
9076;SDS011;4574;51.072;17.174;2023-04-25T09:37:19;4.67;;;3.63;;
9076;SDS011;4574;51.072;17.174;2023-04-25T09:39:50;3.90;;;2.97;;
9076;SDS011;4574;51.072;17.174;2023-04-25T09:42:22;5.43;;;3.30;;
9076;SDS011;4574;51.072;17.174;2023-04-25T09:44:52;2.90;;;2.60;;
9076;SDS011;4574;51.072;17.174;2023-04-25T09:47:24;5.07;;;3.23;;
9076;SDS011;4574;51.072;17.174;2023-04-25T09:49:55;6.13;;;2.80;;
9076;SDS011;4574;51.072;17.174;2023-04-25T09:52:24;3.17;;;2.83;;
9076;SDS011;4574;51.072;17.174;2023-04-25T09:54:53;4.10;;;2.90;;
9076;SDS011;4574;51.072;17.174;2023-04-25T09:57:22;3.93;;;2.67;;
9076;SDS011;4574;51.072;17.174;2023-04-25T09:59:51;3.83;;;2.40;;
9076;SDS011;4574;51.072;17.174;2023-04-25T10:02:23;2.70;;;2.50;;
9076;SDS011;4574;51.072;17.174;2023-04-25T10:04:54;3.13;;;2.63;;
9076;SDS011;4574;51.072;17.174;2023-04-25T10:07:24;4.03;;;3.07;;
9076;SDS011;4574;51.072;17.174;2023-04-25T10:09:58;5.73;;;3.53;;
9076;SDS011;4574;51.072;17.174;2023-04-25T10:12:28;4.90;;;3.90;;
9076;SDS011;4574;51.072;17.174;2023-04-25T10:14:57;6.70;;;3.83;;
9076;SDS011;4574;51.072;17.174;2023-04-25T10:17:28;5.73;;;3.63;;
9076;SDS011;4574;51.072;17.174;2023-04-25T10:19:57;5.57;;;4.20;;
9076;SDS011;4574;51.072;17.174;2023-04-25T10:22:29;5.30;;;3.90;;
9076;SDS011;4574;51.072;17.174;2023-04-25T10:25:00;5.40;;;3.40;;
9076;SDS011;4574;51.072;17.174;2023-04-25T10:27:31;3.47;;;3.07;;
9076;SDS011;4574;51.072;17.174;2023-04-25T10:30:00;4.57;;;3.47;;
9076;SDS011;4574;51.072;17.174;2023-04-25T10:32:32;5.27;;;3.27;;
9076;SDS011;4574;51.072;17.174;2023-04-25T10:35:11;4.53;;;2.97;;
9076;SDS011;4574;51.072;17.174;2023-04-25T10:37:58;7.07;;;3.80;;
9076;SDS011;4574;51.072;17.174;2023-04-25T10:40:27;4.07;;;3.00;;
9076;SDS011;4574;51.072;17.174;2023-04-25T10:42:56;3.57;;;3.10;;
9076;SDS011;4574;51.072;17.174;2023-04-25T10:46:03;4.20;;;3.23;;
9076;SDS011;4574;51.072;17.174;2023-04-25T10:48:49;3.43;;;3.07;;
9076;SDS011;4574;51.072;17.174;2023-04-25T10:51:20;5.30;;;3.47;;
9076;SDS011;4574;51.072;17.174;2023-04-25T10:54:00;5.70;;;3.07;;
9076;SDS011;4574;51.072;17.174;2023-04-25T10:56:30;7.30;;;3.27;;
9076;SDS011;4574;51.072;17.174;2023-04-25T10:59:07;3.53;;;3.20;;
9076;SDS011;4574;51.072;17.174;2023-04-25T11:01:38;3.13;;;2.70;;
9076;SDS011;4574;51.072;17.174;2023-04-25T11:04:20;3.07;;;2.37;;
9076;SDS011;4574;51.072;17.174;2023-04-25T11:06:54;2.63;;;2.20;;
9076;SDS011;4574;51.072;17.174;2023-04-25T11:09:34;5.73;;;3.00;;
9076;SDS011;4574;51.072;17.174;2023-04-25T11:12:03;2.23;;;1.87;;
9076;SDS011;4574;51.072;17.174;2023-04-25T11:14:33;2.47;;;2.03;;
9076;SDS011;4574;51.072;17.174;2023-04-25T11:17:02;2.70;;;2.37;;
9076;SDS011;4574;51.072;17.174;2023-04-25T11:19:33;2.47;;;2.27;;
9076;SDS011;4574;51.072;17.174;2023-04-25T11:22:02;4.00;;;2.33;;
9076;SDS011;4574;51.072;17.174;2023-04-25T11:24:33;3.53;;;2.30;;
9076;SDS011;4574;51.072;17.174;2023-04-25T11:27:03;3.90;;;2.10;;
9076;SDS011;4574;51.072;17.174;2023-04-25T11:29:34;2.47;;;2.20;;
9076;SDS011;4574;51.072;17.174;2023-04-25T11:32:03;2.33;;;2.10;;
9076;SDS011;4574;51.072;17.174;2023-04-25T11:34:34;3.77;;;2.40;;
9076;SDS011;4574;51.072;17.174;2023-04-25T11:37:03;2.47;;;2.10;;
9076;SDS011;4574;51.072;17.174;2023-04-25T11:39:33;2.23;;;2.03;;
9076;SDS011;4574;51.072;17.174;2023-04-25T11:42:02;3.73;;;2.53;;
9076;SDS011;4574;51.072;17.174;2023-04-25T11:44:39;2.60;;;2.33;;
9076;SDS011;4574;51.072;17.174;2023-04-25T11:47:08;2.40;;;1.97;;
9076;SDS011;4574;51.072;17.174;2023-04-25T11:49:38;2.17;;;1.83;;
9076;SDS011;4574;51.072;17.174;2023-04-25T11:52:07;4.40;;;2.33;;
9076;SDS011;4574;51.072;17.174;2023-04-25T11:54:36;1.87;;;1.77;;
9076;SDS011;4574;51.072;17.174;2023-04-25T11:57:05;1.90;;;1.70;;
9076;SDS011;4574;51.072;17.174;2023-04-25T11:59:34;1.60;;;1.50;;
9076;SDS011;4574;51.072;17.174;2023-04-25T12:02:03;1.93;;;1.30;;
9076;SDS011;4574;51.072;17.174;2023-04-25T12:04:33;2.63;;;1.33;;
9076;SDS011;4574;51.072;17.174;2023-04-25T12:07:04;1.37;;;1.13;;
9076;SDS011;4574;51.072;17.174;2023-04-25T12:09:33;2.73;;;1.10;;
9076;SDS011;4574;51.072;17.174;2023-04-25T12:12:02;3.40;;;1.20;;
9076;SDS011;4574;51.072;17.174;2023-04-25T12:14:31;2.13;;;1.20;;
9076;SDS011;4574;51.072;17.174;2023-04-25T12:17:01;2.93;;;1.40;;
9076;SDS011;4574;51.072;17.174;2023-04-25T12:19:35;1.50;;;1.20;;
9076;SDS011;4574;51.072;17.174;2023-04-25T12:22:19;1.57;;;1.40;;
9076;SDS011;4574;51.072;17.174;2023-04-25T12:24:49;1.27;;;1.17;;
9076;SDS011;4574;51.072;17.174;2023-04-25T12:27:19;3.70;;;1.40;;
9076;SDS011;4574;51.072;17.174;2023-04-25T12:29:52;2.07;;;1.17;;
9076;SDS011;4574;51.072;17.174;2023-04-25T12:32:22;1.83;;;1.10;;
9076;SDS011;4574;51.072;17.174;2023-04-25T12:34:51;2.50;;;1.20;;
9076;SDS011;4574;51.072;17.174;2023-04-25T12:37:22;4.23;;;1.60;;
9076;SDS011;4574;51.072;17.174;2023-04-25T12:39:50;2.43;;;1.43;;
9076;SDS011;4574;51.072;17.174;2023-04-25T12:42:19;1.90;;;1.07;;
9076;SDS011;4574;51.072;17.174;2023-04-25T12:44:47;2.07;;;1.30;;
9076;SDS011;4574;51.072;17.174;2023-04-25T12:47:16;1.30;;;1.10;;
9076;SDS011;4574;51.072;17.174;2023-04-25T12:49:45;1.17;;;1.03;;
9076;SDS011;4574;51.072;17.174;2023-04-25T12:52:14;1.77;;;1.20;;
9076;SDS011;4574;51.072;17.174;2023-04-25T12:54:44;2.17;;;1.10;;
9076;SDS011;4574;51.072;17.174;2023-04-25T12:57:13;2.33;;;1.23;;
9076;SDS011;4574;51.072;17.174;2023-04-25T12:59:41;1.20;;;1.10;;
9076;SDS011;4574;51.072;17.174;2023-04-25T13:02:10;2.70;;;1.40;;
9076;SDS011;4574;51.072;17.174;2023-04-25T13:04:39;1.90;;;1.30;;
9076;SDS011;4574;51.072;17.174;2023-04-25T13:07:08;1.33;;;1.10;;
9076;SDS011;4574;51.072;17.174;2023-04-25T13:09:36;1.30;;;1.20;;
9076;SDS011;4574;51.072;17.174;2023-04-25T13:12:06;2.00;;;1.07;;
9076;SDS011;4574;51.072;17.174;2023-04-25T13:14:35;1.70;;;1.20;;
9076;SDS011;4574;51.072;17.174;2023-04-25T13:17:04;2.17;;;1.20;;
9076;SDS011;4574;51.072;17.174;2023-04-25T13:19:33;1.73;;;1.37;;
9076;SDS011;4574;51.072;17.174;2023-04-25T13:22:01;4.20;;;1.70;;
9076;SDS011;4574;51.072;17.174;2023-04-25T13:24:30;2.40;;;1.13;;
9076;SDS011;4574;51.072;17.174;2023-04-25T13:26:59;2.10;;;1.30;;
9076;SDS011;4574;51.072;17.174;2023-04-25T13:29:29;3.00;;;1.30;;
9076;SDS011;4574;51.072;17.174;2023-04-25T13:31:58;1.40;;;1.30;;
9076;SDS011;4574;51.072;17.174;2023-04-25T13:34:27;1.80;;;1.57;;
9076;SDS011;4574;51.072;17.174;2023-04-25T13:36:57;4.67;;;1.33;;
9076;SDS011;4574;51.072;17.174;2023-04-25T13:39:27;2.47;;;1.30;;
9076;SDS011;4574;51.072;17.174;2023-04-25T13:41:55;2.53;;;1.30;;
9076;SDS011;4574;51.072;17.174;2023-04-25T13:44:24;2.73;;;1.10;;
9076;SDS011;4574;51.072;17.174;2023-04-25T13:46:53;1.63;;;1.40;;
9076;SDS011;4574;51.072;17.174;2023-04-25T13:49:22;2.60;;;1.10;;
9076;SDS011;4574;51.072;17.174;2023-04-25T13:51:50;4.50;;;1.30;;
9076;SDS011;4574;51.072;17.174;2023-04-25T13:54:19;2.67;;;1.30;;
9076;SDS011;4574;51.072;17.174;2023-04-25T13:56:47;1.83;;;1.30;;
9076;SDS011;4574;51.072;17.174;2023-04-25T13:59:18;3.50;;;1.00;;
9076;SDS011;4574;51.072;17.174;2023-04-25T14:01:47;2.50;;;1.20;;
9076;SDS011;4574;51.072;17.174;2023-04-25T14:04:17;1.57;;;1.30;;
9076;SDS011;4574;51.072;17.174;2023-04-25T14:06:45;3.60;;;1.40;;
9076;SDS011;4574;51.072;17.174;2023-04-25T14:09:14;2.27;;;1.50;;
9076;SDS011;4574;51.072;17.174;2023-04-25T14:11:43;1.60;;;1.40;;
9076;SDS011;4574;51.072;17.174;2023-04-25T14:14:11;3.27;;;1.20;;
9076;SDS011;4574;51.072;17.174;2023-04-25T14:16:42;1.47;;;1.30;;
9076;SDS011;4574;51.072;17.174;2023-04-25T14:19:10;1.27;;;1.17;;
9076;SDS011;4574;51.072;17.174;2023-04-25T14:21:41;1.40;;;1.17;;
9076;SDS011;4574;51.072;17.174;2023-04-25T14:24:12;2.27;;;1.40;;
9076;SDS011;4574;51.072;17.174;2023-04-25T14:26:43;1.60;;;1.50;;
9076;SDS011;4574;51.072;17.174;2023-04-25T14:29:11;1.90;;;1.40;;
9076;SDS011;4574;51.072;17.174;2023-04-25T14:31:40;1.50;;;1.40;;
9076;SDS011;4574;51.072;17.174;2023-04-25T14:34:09;1.27;;;1.17;;
9076;SDS011;4574;51.072;17.174;2023-04-25T14:36:38;2.77;;;1.23;;
9076;SDS011;4574;51.072;17.174;2023-04-25T14:39:08;1.57;;;1.07;;
9076;SDS011;4574;51.072;17.174;2023-04-25T14:41:36;3.43;;;1.40;;
9076;SDS011;4574;51.072;17.174;2023-04-25T14:44:05;1.20;;;1.10;;
9076;SDS011;4574;51.072;17.174;2023-04-25T14:46:34;1.40;;;1.10;;
9076;SDS011;4574;51.072;17.174;2023-04-25T14:49:03;1.77;;;1.37;;
9076;SDS011;4574;51.072;17.174;2023-04-25T14:51:32;5.50;;;1.40;;
9076;SDS011;4574;51.072;17.174;2023-04-25T14:54:01;2.80;;;1.30;;
9076;SDS011;4574;51.072;17.174;2023-04-25T14:56:31;1.87;;;1.40;;
9076;SDS011;4574;51.072;17.174;2023-04-25T14:59:02;1.57;;;0.90;;
9076;SDS011;4574;51.072;17.174;2023-04-25T15:01:30;1.20;;;1.10;;
9076;SDS011;4574;51.072;17.174;2023-04-25T15:03:59;1.30;;;1.20;;
9076;SDS011;4574;51.072;17.174;2023-04-25T15:06:28;3.17;;;1.90;;
9076;SDS011;4574;51.072;17.174;2023-04-25T15:08:57;2.07;;;1.47;;
9076;SDS011;4574;51.072;17.174;2023-04-25T15:11:25;2.77;;;1.47;;
9076;SDS011;4574;51.072;17.174;2023-04-25T15:13:55;1.83;;;1.43;;
9076;SDS011;4574;51.072;17.174;2023-04-25T15:16:24;3.00;;;1.47;;